Time,TemperatureF,DewpointF,PressureIn,WindDirection,WindDirectionDegrees,WindSpeedMPH,WindSpeedGustMPH,Humidity,HourlyPrecipIn,Conditions,Clouds,dailyrainin,SoftwareType,DateUTC
2013-01-02 00:10:00,35.4,29.0,30.23,NE,44,0.0,3.0,78,0.00,,,0.02,weatherlink.com 1.10,2013-01-02 06:10:00,
2013-01-02 00:25:00,35.9,29.0,30.23,NE,46,6.0,6.0,75,0.00,,,0.02,weatherlink.com 1.10,2013-01-02 06:25:00,
2013-01-02 00:40:00,36.1,29.0,30.24,NNE,26,2.0,5.0,74,0.00,,,0.02,weatherlink.com 1.10,2013-01-02 06:40:00,
2013-01-02 00:55:00,35.5,28.0,30.24,NNE,26,1.0,2.0,75,0.00,,,0.02,weatherlink.com 1.10,2013-01-02 06:55:00,
2013-01-02 01:10:00,35.0,28.0,30.24,NNE,26,0.0,3.0,76,0.00,,,0.02,weatherlink.com 1.10,2013-01-02 07:10:00,
2013-01-02 01:25:00,35.0,28.0,30.24,NNE,26,1.0,4.0,75,0.00,,,0.02,weatherlink.com 1.10,2013-01-02 07:25:00,
2013-01-02 01:40:00,34.6,28.0,30.24,NNE,26,0.0,3.0,76,0.00,,,0.02,weatherlink.com 1.10,2013-01-02 07:40:00,
2013-01-02 01:55:00,34.3,28.0,30.24,NNE,26,0.0,1.0,77,0.00,,,0.00,weatherlink.com 1.10,2013-01-02 07:55:00,
2013-01-02 02:10:00,33.7,28.0,30.24,NNE,26,1.0,1.0,78,0.00,,,0.00,weatherlink.com 1.10,2013-01-02 08:10:00,
2013-01-02 02:25:00,33.2,27.0,30.24,NNE,26,1.0,3.0,79,0.00,,,0.00,weatherlink.com 1.10,2013-01-02 08:25:00,
2013-01-02 02:40:00,33.2,27.0,30.24,NNE,26,0.0,2.0,78,0.00,,,0.00,weatherlink.com 1.10,2013-01-02 08:40:00,
2013-01-02 02:55:00,32.9,27.0,30.25,NNE,26,0.0,0.0,79,0.00,,,0.00,weatherlink.com 1.10,2013-01-02 08:55:00,
2013-01-02 03:10:00,32.6,27.0,30.26,NNE,26,0.0,1.0,80,0.00,,,0.00,weatherlink.com 1.10,2013-01-02 09:10:00,
2013-01-02 03:26:00,32.5,27.0,30.27,NNE,26,0.0,0.0,80,0.00,,,0.00,weatherlink.com 1.10,2013-01-02 09:26:00,
2013-01-02 03:41:00,32.5,28.0,30.27,NNE,26,0.0,0.0,82,0.00,,,0.00,weatherlink.com 1.10,2013-01-02 09:41:00,
2013-01-02 03:56:00,32.6,27.0,30.26,NNE,26,0.0,2.0,81,0.00,,,0.00,weatherlink.com 1.10,2013-01-02 09:56:00,
2013-01-02 04:11:00,32.6,27.0,30.26,NNE,26,0.0,0.0,81,0.00,,,0.00,weatherlink.com 1.10,2013-01-02 10:11:00,
2013-01-02 04:26:00,32.5,28.0,30.27,NNE,26,0.0,0.0,82,0.00,,,0.00,weatherlink.com 1.10,2013-01-02 10:26:00,
2013-01-02 04:41:00,32.2,28.0,30.28,NNE,26,0.0,0.0,83,0.00,,,0.00,weatherlink.com 1.10,2013-01-02 10:41:00,
2013-01-02 05:11:00,31.9,27.0,30.27,NNE,26,0.0,0.0,83,0.00,,,0.00,weatherlink.com 1.10,2013-01-02 11:11:00,
2013-01-02 05:26:00,31.6,27.0,30.28,NNE,26,0.0,0.0,83,0.00,,,0.00,weatherlink.com 1.10,2013-01-02 11:26:00,
2013-01-02 05:41:00,31.5,27.0,30.27,NNE,26,0.0,0.0,84,0.00,,,0.00,weatherlink.com 1.10,2013-01-02 11:41:00,
2013-01-02 05:56:00,31.4,27.0,30.27,NNE,26,0.0,0.0,84,0.00,,,0.00,weatherlink.com 1.10,2013-01-02 11:56:00,
2013-01-02 06:11:00,31.4,27.0,30.27,NNE,26,0.0,1.0,84,0.00,,,0.00,weatherlink.com 1.10,2013-01-02 12:11:00,
2013-01-02 06:26:00,31.4,27.0,30.27,NNE,26,0.0,0.0,84,0.00,,,0.00,weatherlink.com 1.10,2013-01-02 12:26:00,
2013-01-02 06:41:00,31.4,27.0,30.28,NNE,26,0.0,0.0,84,0.00,,,0.00,weatherlink.com 1.10,2013-01-02 12:41:00,
2013-01-02 06:56:00,31.2,27.0,30.28,NNE,26,0.0,1.0,84,0.00,,,0.00,weatherlink.com 1.10,2013-01-02 12:56:00,
2013-01-02 07:11:00,31.1,27.0,30.28,NNE,26,0.0,1.0,84,0.00,,,0.00,weatherlink.com 1.10,2013-01-02 13:11:00,
2013-01-02 07:26:00,31.1,27.0,30.28,NNE,26,1.0,2.0,83,0.00,,,0.00,weatherlink.com 1.10,2013-01-02 13:26:00,
2013-01-02 07:41:00,31.4,26.0,30.29,NNE,26,0.0,4.0,81,0.00,,,0.00,weatherlink.com 1.10,2013-01-02 13:41:00,
2013-01-02 07:56:00,31.4,26.0,30.30,NNE,26,1.0,3.0,81,0.00,,,0.00,weatherlink.com 1.10,2013-01-02 13:56:00,
2013-01-02 08:11:00,31.7,26.0,30.30,NNE,26,0.0,1.0,80,0.00,,,0.00,weatherlink.com 1.10,2013-01-02 14:11:00,
2013-01-02 08:26:00,32.0,27.0,30.31,NNE,26,0.0,2.0,80,0.00,,,0.00,weatherlink.com 1.10,2013-01-02 14:26:00,
2013-01-02 08:41:00,32.4,26.0,30.32,NNE,26,2.0,4.0,78,0.00,,,0.00,weatherlink.com 1.10,2013-01-02 14:41:00,
2013-01-02 08:56:00,32.9,27.0,30.32,NNE,26,0.0,3.0,78,0.00,,,0.00,weatherlink.com 1.10,2013-01-02 14:56:00,
2013-01-02 09:11:00,33.2,26.0,30.32,NNE,26,0.0,3.0,76,0.00,,,0.00,weatherlink.com 1.10,2013-01-02 15:11:00,
2013-01-02 09:26:00,33.7,26.0,30.32,NNE,24,2.0,3.0,74,0.00,,,0.00,weatherlink.com 1.10,2013-01-02 15:26:00,
2013-01-02 09:41:00,34.1,26.0,30.33,NNE,24,1.0,4.0,73,0.00,,,0.00,weatherlink.com 1.10,2013-01-02 15:41:00,
2013-01-02 09:56:00,34.4,27.0,30.32,NNE,24,0.0,3.0,73,0.00,,,0.00,weatherlink.com 1.10,2013-01-02 15:56:00,
2013-01-02 10:11:00,34.8,27.0,30.33,NNE,24,0.0,4.0,73,0.00,,,0.00,weatherlink.com 1.10,2013-01-02 16:11:00,
2013-01-02 10:26:00,35.4,27.0,30.33,NNE,22,1.0,5.0,71,0.00,,,0.00,weatherlink.com 1.10,2013-01-02 16:26:00,
2013-01-02 10:41:00,36.0,27.0,30.33,NNE,21,3.0,5.0,69,0.00,,,0.00,weatherlink.com 1.10,2013-01-02 16:41:00,
2013-01-02 10:56:00,36.5,27.0,30.33,NNE,17,0.0,4.0,68,0.00,,,0.00,weatherlink.com 1.10,2013-01-02 16:56:00,
2013-01-02 11:11:00,37.0,27.0,30.33,NNE,16,3.0,5.0,67,0.00,,,0.00,weatherlink.com 1.10,2013-01-02 17:11:00,
2013-01-02 11:26:00,37.9,27.0,30.32,NNE,16,2.0,5.0,65,0.00,,,0.00,weatherlink.com 1.10,2013-01-02 17:26:00,
2013-01-02 11:41:00,38.3,27.0,30.31,NNE,13,4.0,6.0,64,0.00,,,0.00,weatherlink.com 1.10,2013-01-02 17:41:00,
2013-01-02 11:56:00,39.1,27.0,30.30,NNE,13,1.0,4.0,63,0.00,,,0.00,weatherlink.com 1.10,2013-01-02 17:56:00,
2013-01-02 12:11:00,39.7,27.0,30.29,NE,47,1.0,6.0,61,0.00,,,0.00,weatherlink.com 1.10,2013-01-02 18:11:00,
2013-01-02 12:26:00,40.7,27.0,30.28,North,355,3.0,5.0,59,0.00,,,0.00,weatherlink.com 1.10,2013-01-02 18:26:00,
2013-01-02 12:41:00,40.9,27.0,30.27,NNE,18,0.0,5.0,57,0.00,,,0.00,weatherlink.com 1.10,2013-01-02 18:41:00,
2013-01-02 12:56:00,41.4,27.0,30.26,NNE,13,5.0,7.0,57,0.00,,,0.00,weatherlink.com 1.10,2013-01-02 18:56:00,
2013-01-02 13:11:00,42.2,27.0,30.25,NNE,14,3.0,8.0,56,0.00,,,0.00,weatherlink.com 1.10,2013-01-02 19:11:00,
2013-01-02 13:27:00,42.6,27.0,30.25,NNE,19,5.0,5.0,54,0.00,,,0.00,weatherlink.com 1.10,2013-01-02 19:27:00,
2013-01-02 13:42:00,42.7,26.0,30.24,North,5,2.0,8.0,53,0.00,,,0.00,weatherlink.com 1.10,2013-01-02 19:42:00,
2013-01-02 13:57:00,43.2,27.0,30.23,NNE,13,3.0,8.0,53,0.00,,,0.00,weatherlink.com 1.10,2013-01-02 19:57:00,
2013-01-02 14:12:00,43.7,26.0,30.23,NE,43,3.0,6.0,51,0.00,,,0.00,weatherlink.com 1.10,2013-01-02 20:12:00,
2013-01-02 14:27:00,44.5,27.0,30.23,NNE,17,3.0,7.0,51,0.00,,,0.00,weatherlink.com 1.10,2013-01-02 20:27:00,
2013-01-02 14:42:00,44.8,27.0,30.23,North,5,7.0,9.0,49,0.00,,,0.00,weatherlink.com 1.10,2013-01-02 20:42:00,
2013-01-02 14:57:00,45.2,26.0,30.23,NNE,29,6.0,8.0,48,0.00,,,0.00,weatherlink.com 1.10,2013-01-02 20:57:00,
2013-01-02 15:12:00,45.6,26.0,30.23,NE,36,3.0,9.0,47,0.00,,,0.00,weatherlink.com 1.10,2013-01-02 21:12:00,
2013-01-02 15:27:00,45.5,27.0,30.22,NE,50,7.0,9.0,48,0.00,,,0.00,weatherlink.com 1.10,2013-01-02 21:27:00,
2013-01-02 15:42:00,45.8,26.0,30.22,NNE,23,2.0,7.0,47,0.00,,,0.00,weatherlink.com 1.10,2013-01-02 21:42:00,
2013-01-02 15:57:00,45.6,26.0,30.23,NE,36,5.0,7.0,47,0.00,,,0.00,weatherlink.com 1.10,2013-01-02 21:57:00,
2013-01-02 16:12:00,45.4,26.0,30.23,North,11,3.0,7.0,47,0.00,,,0.00,weatherlink.com 1.10,2013-01-02 22:12:00,
2013-01-02 16:27:00,45.4,26.0,30.23,NNE,14,3.0,6.0,47,0.00,,,0.00,weatherlink.com 1.10,2013-01-02 22:27:00,
2013-01-02 16:42:00,45.3,26.0,30.23,NE,46,1.0,5.0,47,0.00,,,0.00,weatherlink.com 1.10,2013-01-02 22:42:00,
2013-01-02 16:57:00,44.9,26.0,30.23,NE,46,1.0,5.0,48,0.00,,,0.00,weatherlink.com 1.10,2013-01-02 22:57:00,
2013-01-02 17:12:00,44.4,26.0,30.23,NE,46,1.0,4.0,49,0.00,,,0.00,weatherlink.com 1.10,2013-01-02 23:12:00,
2013-01-02 17:27:00,43.9,27.0,30.23,NE,46,0.0,3.0,51,0.00,,,0.00,weatherlink.com 1.10,2013-01-02 23:27:00,
2013-01-02 17:42:00,43.3,27.0,30.24,NE,46,0.0,2.0,52,0.00,,,0.00,weatherlink.com 1.10,2013-01-02 23:42:00,
2013-01-02 17:57:00,42.7,27.0,30.24,NE,46,0.0,2.0,54,0.00,,,0.00,weatherlink.com 1.10,2013-01-02 23:57:00,
2013-01-02 18:12:00,42.0,27.0,30.25,NE,46,0.0,1.0,55,0.00,,,0.00,weatherlink.com 1.10,2013-01-03 00:12:00,
2013-01-02 18:27:00,41.2,26.0,30.25,NE,46,0.0,0.0,56,0.00,,,0.00,weatherlink.com 1.10,2013-01-03 00:27:00,
2013-01-02 18:42:00,40.4,26.0,30.25,NE,46,0.0,0.0,57,0.00,,,0.00,weatherlink.com 1.10,2013-01-03 00:42:00,
2013-01-02 19:12:00,38.4,26.0,30.27,NE,46,0.0,0.0,62,0.00,,,0.00,weatherlink.com 1.10,2013-01-03 01:12:00,
2013-01-02 19:27:00,37.4,26.0,30.27,NE,46,0.0,0.0,64,0.00,,,0.00,weatherlink.com 1.10,2013-01-03 01:27:00,
2013-01-02 19:42:00,36.4,26.0,30.27,NE,46,0.0,0.0,66,0.00,,,0.00,weatherlink.com 1.10,2013-01-03 01:42:00,
2013-01-02 19:57:00,35.8,26.0,30.27,NE,46,0.0,0.0,67,0.00,,,0.00,weatherlink.com 1.10,2013-01-03 01:57:00,
2013-01-02 20:12:00,35.2,27.0,30.27,NE,46,0.0,0.0,71,0.00,,,0.00,weatherlink.com 1.10,2013-01-03 02:12:00,
2013-01-02 20:27:00,34.8,26.0,30.28,NE,46,0.0,0.0,70,0.00,,,0.00,weatherlink.com 1.10,2013-01-03 02:27:00,
2013-01-02 20:42:00,34.1,26.0,30.28,NE,46,0.0,0.0,72,0.00,,,0.00,weatherlink.com 1.10,2013-01-03 02:42:00,
2013-01-02 20:57:00,33.4,25.0,30.28,NE,46,0.0,0.0,72,0.00,,,0.00,weatherlink.com 1.10,2013-01-03 02:57:00,
2013-01-02 21:12:00,32.7,25.0,30.29,NE,46,0.0,0.0,74,0.00,,,0.00,weatherlink.com 1.10,2013-01-03 03:12:00,
2013-01-02 21:27:00,32.3,25.0,30.30,NE,46,0.0,0.0,75,0.00,,,0.00,weatherlink.com 1.10,2013-01-03 03:27:00,
2013-01-02 21:42:00,31.6,25.0,30.30,NE,46,0.0,0.0,76,0.00,,,0.00,weatherlink.com 1.10,2013-01-03 03:42:00,
2013-01-02 21:57:00,31.4,25.0,30.30,NE,46,0.0,0.0,77,0.00,,,0.00,weatherlink.com 1.10,2013-01-03 03:57:00,
2013-01-02 22:12:00,31.7,25.0,30.31,NE,46,0.0,0.0,76,0.00,,,0.00,weatherlink.com 1.10,2013-01-03 04:12:00,
2013-01-02 22:27:00,31.2,24.0,30.32,NE,46,0.0,0.0,76,0.00,,,0.00,weatherlink.com 1.10,2013-01-03 04:27:00,
2013-01-02 22:42:00,29.7,24.0,30.32,NE,46,0.0,0.0,78,0.00,,,0.00,weatherlink.com 1.10,2013-01-03 04:42:00,
2013-01-02 23:13:00,28.9,24.0,30.32,NE,46,0.0,0.0,81,0.00,,,0.00,weatherlink.com 1.10,2013-01-03 05:13:00,
2013-01-02 23:27:00,28.0,23.0,30.32,NE,46,0.0,0.0,80,0.00,,,0.00,weatherlink.com 1.10,2013-01-03 05:27:00,
2013-01-02 23:42:00,27.1,23.0,30.32,NE,46,0.0,0.0,83,0.00,,,0.00,weatherlink.com 1.10,2013-01-03 05:42:00,
2013-01-02 23:57:00,27.3,23.0,30.32,NE,46,0.0,0.0,84,0.00,,,0.00,weatherlink.com 1.10,2013-01-03 05:57:00,